Time;durP1;ratioP1;P1;durP2;ratioP2;P2;SDS_P1;SDS_P2;PMS_P1;PMS_P2;Temp;Humidity;BMP_temperature;BMP_pressure;BME280_temperature;BME280_humidity;BME280_pressure;Samples;Min_cycle;Max_cycle;Signal;HPM_P1;HPM_P2
2022/11/24 00:32:08;;;;;;;36.88;21.67;;;13.40;66.50;;;;;;4891684;29;20043;-82
2022/11/24 02:39:09;;;;;;;65.32;32.97;;;13.00;68.40;;;;;;4973434;28;20146;-84
2022/11/24 03:28:22;;;;;;;;;;;;;;;;;;;;;
2022/11/24 04:03:45;;;;;;;75.25;37.95;;;11.90;68.50;;;;;;4938528;29;20044;-84
2022/11/24 04:06:13;;;;;;;80.45;38.17;;;12.00;68.10;;;;;;4940925;29;20059;-83
2022/11/24 04:09:11;;;;;;;85.38;39.05;;;12.00;67.70;;;;;;4923641;29;20371;-84
2022/11/24 04:14:30;;;;;;;82.25;39.38;;;11.90;67.50;;;;;;4853471;29;20553;-83
2022/11/24 04:16:58;;;;;;;92.65;41.42;;;12.00;67.10;;;;;;4869023;29;20061;-83
2022/11/24 04:20:04;;;;;;;88.70;40.60;;;11.90;67.30;;;;;;4863374;29;20064;-82
2022/11/24 04:22:45;;;;;;;91.32;40.30;;;11.60;68.20;;;;;;4850547;29;20478;-83
2022/11/24 04:28:30;;;;;;;96.30;42.28;;;11.80;67.40;;;;;;4862648;29;20681;-82
2022/11/24 04:31:25;;;;;;;95.65;42.40;;;11.80;66.60;;;;;;4829397;29;20041;-83
2022/11/24 04:40:26;;;;;;;92.63;41.58;;;11.80;67.40;;;;;;4797379;29;20128;-81
2022/11/24 04:43:20;;;;;;;94.55;40.90;;;11.80;67.40;;;;;;4799170;29;20043;-82
2022/11/24 04:45:46;;;;;;;87.90;39.80;;;11.60;67.90;;;;;;4768349;30;20039;-82
2022/11/24 04:48:41;;;;;;;94.50;42.80;;;11.50;67.40;;;;;;4806734;29;20099;-83
2022/11/24 04:51:06;;;;;;;97.00;41.30;;;11.50;67.30;;;;;;4806372;29;20482;-83
2022/11/24 04:54:09;;;;;;;92.43;41.42;;;11.40;67.40;;;;;;4802922;29;20031;-85
2022/11/24 04:56:38;;;;;;;90.63;39.50;;;11.40;67.60;;;;;;4800554;29;20172;-84
2022/11/24 04:59:11;;;;;;;92.93;40.03;;;11.30;67.10;;;;;;4792664;29;20070;-82
2022/11/24 05:01:36;;;;;;;89.03;39.55;;;11.50;68.10;;;;;;4793093;29;20051;-83
2022/11/24 05:04:31;;;;;;;94.22;41.50;;;11.40;67.00;;;;;;4798294;29;20054;-83
2022/11/24 05:06:57;;;;;;;87.60;39.13;;;11.30;67.40;;;;;;4789315;29;20044;-81
2022/11/24 05:12:34;;;;;;;89.43;39.97;;;11.00;68.10;;;;;;4789743;30;20146;-81
2022/11/24 05:15:29;;;;;;;88.28;41.05;;;11.00;68.70;;;;;;4862357;29;20064;-83
2022/11/24 05:17:58;;;;;;;92.20;39.35;;;11.10;68.80;;;;;;4855759;29;20037;-86
2022/11/24 05:21:01;;;;;;;83.28;38.25;;;11.20;67.50;;;;;;4846420;29;20053;-83
2022/11/24 05:23:32;;;;;;;90.63;39.78;;;11.40;67.50;;;;;;4788685;30;20085;-82
2022/11/24 05:26:00;;;;;;;87.10;37.42;;;11.20;67.70;;;;;;4779650;30;20055;-82
2022/11/24 05:28:29;;;;;;;90.07;37.63;;;11.40;66.60;;;;;;4804414;29;20491;-82
2022/11/24 05:31:04;;;;;;;86.90;36.87;;;11.50;67.50;;;;;;4806969;29;20047;-81
2022/11/24 05:34:02;;;;;;;91.78;36.88;;;11.60;65.70;;;;;;4807507;29;20483;-83
2022/11/24 05:49:48;;;;;;;76.82;33.67;;;12.20;64.40;;;;;;4848266;29;20041;-82
2022/11/24 05:52:14;;;;;;;79.40;35.20;;;12.30;63.80;;;;;;4859584;29;20037;-82
2022/11/24 05:58:30;;;;;;;73.85;33.10;;;11.80;65.00;;;;;;4772278;29;20047;-83
2022/11/24 06:00:56;;;;;;;74.25;31.67;;;11.60;65.00;;;;;;4829434;29;20030;-82
2022/11/24 06:03:22;;;;;;;74.30;32.28;;;11.30;65.90;;;;;;4842444;29;20584;-80
2022/11/24 06:05:48;;;;;;;73.53;32.10;;;11.40;66.10;;;;;;4843127;29;20113;-81
2022/11/24 06:08:45;;;;;;;72.60;30.52;;;11.40;65.60;;;;;;4842665;29;20121;-80
2022/11/24 06:11:35;;;;;;;73.90;32.22;;;11.50;66.00;;;;;;4837267;29;20486;-82
2022/11/24 06:14:01;;;;;;;69.53;29.80;;;11.60;64.90;;;;;;4842387;29;20077;-81
2022/11/24 06:20:20;;;;;;;68.10;31.20;;;11.70;65.00;;;;;;4823977;29;20094;-81
2022/11/24 06:23:42;;;;;;;;;;;;;;;;;;;;;
2022/11/24 06:26:22;;;;;;;66.43;29.50;;;11.60;65.10;;;;;;4824105;29;20475;-81
2022/11/24 06:29:48;;;;;;;;;;;;;;;;;;;;;
2022/11/24 06:32:43;;;;;;;66.40;30.02;;;11.90;64.20;;;;;;4824302;29;20034;-81
2022/11/24 06:35:12;;;;;;;64.75;30.25;;;12.20;63.50;;;;;;4868756;29;20468;-82
2022/11/24 06:37:38;;;;;;;76.85;38.00;;;12.40;63.10;;;;;;4883309;29;20027;-81
2022/11/24 06:40:08;;;;;;;65.90;32.70;;;12.50;62.40;;;;;;4882935;29;20029;-81
2022/11/24 06:42:34;;;;;;;58.33;26.43;;;12.60;62.00;;;;;;4883458;29;20024;-82
2022/11/24 06:45:00;;;;;;;57.28;29.38;;;12.40;61.70;;;;;;4899383;29;20047;-82
2022/11/24 06:47:29;;;;;;;59.65;27.67;;;12.10;62.80;;;;;;4883189;29;20040;-80
2022/11/24 06:49:55;;;;;;;59.65;27.92;;;12.10;63.20;;;;;;4882807;29;20029;-80
2022/11/24 06:52:20;;;;;;;55.05;27.45;;;12.20;62.60;;;;;;4882883;29;20028;-80
2022/11/24 06:54:46;;;;;;;55.90;27.00;;;12.10;62.70;;;;;;4889530;29;20381;-82
2022/11/24 06:57:11;;;;;;;55.25;26.75;;;12.00;63.70;;;;;;4882204;29;20033;-83
2022/11/24 06:59:37;;;;;;;56.08;27.13;;;11.90;63.40;;;;;;4882304;29;20028;-82
2022/11/24 07:02:03;;;;;;;52.92;27.38;;;11.80;64.20;;;;;;4902104;29;20048;-83
2022/11/24 07:04:29;;;;;;;61.15;28.50;;;11.80;64.10;;;;;;4915249;29;20060;-84
2022/11/24 07:07:37;;;;;;;58.83;28.40;;;11.70;64.40;;;;;;4898756;29;20047;-82
2022/11/24 07:10:06;;;;;;;59.05;27.55;;;11.80;63.80;;;;;;4917547;29;20035;-82
2022/11/24 07:16:03;;;;;;;57.55;27.40;;;11.60;64.50;;;;;;4840358;29;20041;-81
2022/11/24 07:19:00;;;;;;;59.83;27.45;;;11.70;64.60;;;;;;4841119;29;20034;-83
2022/11/24 07:21:37;;;;;;;63.42;28.77;;;11.70;64.00;;;;;;4825739;29;20095;-83
2022/11/24 07:24:03;;;;;;;61.97;28.42;;;11.50;64.90;;;;;;4827383;29;20398;-79
2022/11/24 07:26:38;;;;;;;64.43;28.23;;;11.50;64.60;;;;;;4840971;29;20120;-81
2022/11/24 07:29:13;;;;;;;60.63;27.90;;;11.10;64.90;;;;;;4841000;29;20125;-81
2022/11/24 07:31:48;;;;;;;58.88;28.23;;;10.90;66.40;;;;;;4825674;29;20041;-82
2022/11/24 07:34:14;;;;;;;65.32;29.60;;;11.10;66.80;;;;;;4855608;29;20594;-80
2022/11/24 07:36:41;;;;;;;69.00;27.20;;;11.50;64.90;;;;;;4824764;29;20041;-83
2022/11/24 07:39:07;;;;;;;59.90;28.38;;;11.70;64.00;;;;;;4824737;29;20390;-79
2022/11/24 07:41:33;;;;;;;58.88;27.58;;;11.50;64.90;;;;;;4825377;29;20032;-82
2022/11/24 07:44:10;;;;;;;63.72;29.17;;;11.40;65.70;;;;;;4824494;29;20094;-80
2022/11/24 07:46:36;;;;;;;62.20;28.15;;;11.60;65.70;;;;;;4824762;29;20067;-82
2022/11/24 07:49:11;;;;;;;;;;;;;;;;;;;;;
2022/11/24 07:51:37;;;;;;;62.60;28.85;;;11.60;64.60;;;;;;4848322;29;20029;-84
2022/11/24 07:54:03;;;;;;;58.38;27.65;;;11.90;64.60;;;;;;4899213;29;20039;-86
2022/11/24 07:56:55;;;;;;;64.25;28.15;;;11.70;64.90;;;;;;4899665;29;20028;-84
2022/11/24 07:59:24;;;;;;;62.13;28.25;;;11.40;64.60;;;;;;4914372;29;20028;-84
2022/11/24 08:01:55;;;;;;;62.97;28.77;;;11.20;65.80;;;;;;4903282;29;20122;-83
2022/11/24 08:04:21;;;;;;;59.95;28.48;;;11.10;65.80;;;;;;4916765;29;20134;-83
2022/11/24 08:06:47;;;;;;;61.45;28.80;;;11.00;65.90;;;;;;4900134;29;20608;-84
2022/11/24 08:09:19;;;;;;;62.58;30.52;;;11.20;65.90;;;;;;4916657;29;20035;-85
2022/11/24 08:11:45;;;;;;;64.13;28.63;;;11.40;65.20;;;;;;4885198;29;20148;-84
2022/11/24 08:14:11;;;;;;;65.57;28.88;;;11.40;65.40;;;;;;4882067;29;20025;-85
2022/11/24 08:16:39;;;;;;;61.78;28.80;;;11.10;65.50;;;;;;4882100;29;20067;-84
2022/11/24 08:19:04;;;;;;;68.78;30.92;;;10.90;66.30;;;;;;4881727;29;20087;-84
2022/11/24 08:21:31;;;;;;;70.88;29.77;;;11.20;66.40;;;;;;4882393;29;20028;-86
2022/11/24 08:23:57;;;;;;;69.18;33.50;;;11.50;65.90;;;;;;4881415;29;20037;-85
2022/11/24 08:26:24;;;;;;;70.97;35.05;;;11.40;65.30;;;;;;4881983;29;20021;-89
2022/11/24 08:28:54;;;;;;;68.72;33.53;;;11.70;65.00;;;;;;4881608;29;20055;-87
2022/11/24 08:31:19;;;;;;;66.88;32.45;;;11.70;64.80;;;;;;4881784;29;20033;-83
2022/11/24 08:33:45;;;;;;;68.40;30.92;;;11.70;65.10;;;;;;4881738;29;20039;-85
2022/11/24 08:36:17;;;;;;;66.65;27.92;;;11.60;64.80;;;;;;4916390;29;20488;-86
2022/11/24 08:38:43;;;;;;;66.35;29.77;;;11.80;64.20;;;;;;4885536;29;20100;-86
2022/11/24 08:44:08;;;;;;;62.40;29.08;;;11.50;65.00;;;;;;4901897;29;20163;-83
2022/11/24 08:47:56;;;;;;;61.20;27.50;;;11.60;64.90;;;;;;4883082;29;20085;-85
2022/11/24 08:50:37;;;;;;;61.28;28.45;;;11.40;64.50;;;;;;4892542;29;20064;-84
2022/11/24 08:56:13;;;;;;;58.67;27.52;;;11.10;65.80;;;;;;4824398;29;20038;-84
2022/11/24 08:58:48;;;;;;;67.32;30.17;;;11.20;64.90;;;;;;4825802;29;20043;-83
2022/11/24 09:08:36;;;;;;;63.78;29.42;;;11.90;64.20;;;;;;4825726;29;20541;-85
2022/11/24 09:18:06;;;;;;;62.17;30.13;;;12.20;63.70;;;;;;4735538;30;20044;-83
2022/11/24 09:20:32;;;;;;;66.97;29.48;;;11.70;63.40;;;;;;4736081;30;20066;-83
2022/11/24 09:22:57;;;;;;;62.00;28.85;;;11.70;64.10;;;;;;4735282;30;20438;-80
2022/11/24 09:25:28;;;;;;;65.30;29.33;;;11.80;64.00;;;;;;4735740;30;20043;-86
2022/11/24 09:28:14;;;;;;;70.53;32.67;;;12.20;63.70;;;;;;4720864;30;20051;-84
2022/11/24 09:31:33;;;;;;;62.72;28.95;;;12.00;62.60;;;;;;4735964;30;20098;-84
2022/11/24 09:34:14;;;;;;;61.65;28.30;;;12.20;63.30;;;;;;4696597;30;20042;-83
2022/11/24 09:37:04;;;;;;;57.53;27.13;;;12.10;62.80;;;;;;4717494;30;20425;-83
2022/11/24 09:40:17;;;;;;;57.88;27.00;;;12.20;62.90;;;;;;4708692;30;20096;-82
2022/11/24 09:43:24;;;;;;;62.97;35.25;;;12.00;63.40;;;;;;4711907;30;20422;-84
2022/11/24 09:46:19;;;;;;;61.15;27.60;;;12.20;63.00;;;;;;4712967;30;20052;-82
2022/11/24 09:48:49;;;;;;;55.35;26.65;;;12.30;62.00;;;;;;4713926;30;20143;-83
2022/11/24 09:51:15;;;;;;;59.05;27.02;;;11.80;62.90;;;;;;4723850;30;20041;-83
2022/11/24 09:53:53;;;;;;;53.97;27.58;;;11.50;63.80;;;;;;4748621;30;20820;-83
2022/11/24 09:56:28;;;;;;;57.55;27.35;;;11.40;65.00;;;;;;4806134;29;20489;-88
2022/11/24 09:58:58;;;;;;;85.20;48.95;;;11.40;63.60;;;;;;4806166;29;20038;-80
2022/11/24 10:01:29;;;;;;;77.93;34.05;;;11.40;64.60;;;;;;4807885;29;20066;-87
2022/11/24 10:03:55;;;;;;;69.53;32.38;;;11.70;64.00;;;;;;4791317;29;20063;-84
2022/11/24 10:06:37;;;;;;;122.95;96.03;;;11.50;64.90;;;;;;4806366;29;20039;-85
2022/11/24 10:09:09;;;;;;;82.97;44.70;;;11.80;63.90;;;;;;4806143;29;20078;-81
2022/11/24 10:11:51;;;;;;;60.45;32.17;;;11.80;64.00;;;;;;4838725;29;20050;-84
2022/11/24 10:14:35;;;;;;;74.18;41.95;;;11.60;63.70;;;;;;4857306;29;20576;-82
2022/11/24 10:17:27;;;;;;;52.60;28.00;;;11.10;64.70;;;;;;4841122;29;20038;-85
2022/11/24 10:20:11;;;;;;;68.22;32.65;;;11.30;64.60;;;;;;4841913;29;20033;-79
2022/11/24 10:22:53;;;;;;;61.28;35.05;;;11.50;64.80;;;;;;4898923;29;20445;-83
2022/11/24 10:25:28;;;;;;;96.32;64.07;;;11.80;63.80;;;;;;4884708;29;20040;-81
2022/11/24 10:27:59;;;;;;;78.88;55.30;;;11.90;63.70;;;;;;4881430;29;20077;-82
2022/11/24 10:30:27;;;;;;;60.72;31.65;;;12.30;63.70;;;;;;4882150;29;20036;-83
2022/11/24 10:33:17;;;;;;;65.00;36.22;;;12.70;62.80;;;;;;4882408;29;20068;-82
2022/11/24 10:35:49;;;;;;;61.92;36.45;;;13.20;61.40;;;;;;4914173;29;20040;-86
2022/11/24 10:38:45;;;;;;;56.33;31.33;;;13.30;61.00;;;;;;4883064;29;20032;-84
2022/11/24 10:41:21;;;;;;;58.13;27.45;;;13.30;61.10;;;;;;4883293;29;20032;-85
2022/11/24 10:43:47;;;;;;;54.90;27.45;;;13.10;61.50;;;;;;4883066;29;20092;-87
2022/11/24 10:46:23;;;;;;;56.25;30.05;;;13.10;61.50;;;;;;4882948;29;20032;-83
2022/11/24 10:49:01;;;;;;;57.63;27.77;;;13.30;61.70;;;;;;4882721;29;20067;-88
2022/11/24 10:51:49;;;;;;;58.55;27.77;;;13.30;61.30;;;;;;4879854;29;20025;-88
2022/11/24 10:54:51;;;;;;;55.83;26.98;;;12.70;62.60;;;;;;4882691;29;20040;-83
2022/11/24 10:58:20;;;;;;;58.38;27.95;;;13.00;62.60;;;;;;4898911;29;20036;-84
2022/11/24 11:01:11;;;;;;;65.18;43.90;;;13.10;62.50;;;;;;4823870;29;20030;-84
2022/11/24 11:04:02;;;;;;;51.03;25.55;;;13.10;62.00;;;;;;4823331;29;20054;-86
2022/11/24 11:10:40;;;;;;;48.40;24.27;;;12.80;62.30;;;;;;4768792;30;20038;-86
2022/11/24 11:15:58;;;;;;;40.83;22.27;;;12.80;61.20;;;;;;4935085;29;20048;-83
2022/11/24 11:18:32;;;;;;;53.17;23.42;;;13.40;61.20;;;;;;4919799;29;20542;-83
2022/11/24 11:21:03;;;;;;;43.97;21.83;;;14.00;59.00;;;;;;4919388;29;20063;-87
2022/11/24 11:23:34;;;;;;;52.53;33.75;;;14.10;58.00;;;;;;4919434;29;20123;-86
2022/11/24 11:26:18;;;;;;;58.10;39.00;;;13.40;58.80;;;;;;4919695;29;20141;-81
2022/11/24 11:29:00;;;;;;;46.92;25.38;;;13.10;60.50;;;;;;4919346;29;20091;-83
2022/11/24 11:31:27;;;;;;;43.92;23.27;;;13.10;59.80;;;;;;4919913;29;20522;-86
2022/11/24 11:33:55;;;;;;;48.15;30.17;;;13.00;59.70;;;;;;4919547;29;20431;-81
2022/11/24 11:36:21;;;;;;;50.70;30.98;;;13.10;60.40;;;;;;4919760;29;20034;-82
2022/11/24 11:38:47;;;;;;;48.65;30.50;;;13.20;60.40;;;;;;4919784;29;20023;-81
2022/11/24 11:41:20;;;;;;;45.50;23.58;;;13.30;60.00;;;;;;4918754;29;20071;-85
2022/11/24 11:43:53;;;;;;;54.85;33.72;;;13.50;59.40;;;;;;4918633;29;20040;-80
2022/11/24 11:46:19;;;;;;;34.92;19.77;;;13.70;60.10;;;;;;4918945;29;20110;-81
2022/11/24 11:48:46;;;;;;;39.78;19.85;;;13.60;58.60;;;;;;4935898;29;20403;-82
2022/11/24 11:51:33;;;;;;;45.75;28.02;;;13.70;59.40;;;;;;4918832;29;20020;-81
2022/11/24 11:53:59;;;;;;;37.08;20.60;;;14.10;59.00;;;;;;4951086;28;20027;-80
2022/11/24 11:56:44;;;;;;;34.85;18.33;;;14.20;58.30;;;;;;4919105;29;20026;-86
2022/11/24 11:59:22;;;;;;;35.60;18.77;;;14.20;57.40;;;;;;4919192;29;20016;-81
2022/11/24 12:02:02;;;;;;;35.95;19.83;;;14.00;58.00;;;;;;4918970;29;20023;-81
2022/11/24 12:05:06;;;;;;;36.60;20.38;;;14.20;57.50;;;;;;4936185;29;20040;-81
2022/11/24 12:07:35;;;;;;;39.95;19.80;;;14.30;58.30;;;;;;4862084;29;20592;-81
2022/11/24 12:10:23;;;;;;;37.72;22.00;;;14.20;57.00;;;;;;4863639;29;20041;-81
2022/11/24 12:13:03;;;;;;;34.30;19.40;;;13.40;58.70;;;;;;4881161;29;20032;-81
2022/11/24 12:15:57;;;;;;;40.08;20.83;;;13.40;59.60;;;;;;4865184;29;20064;-83
2022/11/24 12:18:41;;;;;;;39.08;19.70;;;13.60;59.60;;;;;;4881347;29;20441;-86
2022/11/24 12:21:12;;;;;;;38.97;20.58;;;13.50;60.00;;;;;;4532036;29;10000430;-82
2022/11/24 12:24:10;;;;;;;35.88;19.83;;;13.50;59.30;;;;;;4884029;29;20041;-82
2022/11/24 12:27:06;;;;;;;37.20;19.58;;;13.50;59.90;;;;;;4884215;29;20582;-82
2022/11/24 12:29:40;;;;;;;32.75;17.23;;;13.20;60.40;;;;;;4899649;29;20538;-82
2022/11/24 12:32:20;;;;;;;38.25;19.52;;;13.10;59.80;;;;;;4899843;29;20585;-81
2022/11/24 12:34:55;;;;;;;33.97;17.35;;;12.90;60.40;;;;;;4883576;29;20025;-79
2022/11/24 12:37:32;;;;;;;39.55;19.50;;;12.80;61.20;;;;;;4883903;29;20080;-81
2022/11/24 12:40:04;;;;;;;36.47;20.60;;;12.80;60.60;;;;;;4883672;29;20039;-85
2022/11/24 12:42:32;;;;;;;33.22;20.05;;;12.80;60.30;;;;;;4892882;29;20036;-81
2022/11/24 12:45:07;;;;;;;33.17;19.20;;;12.80;60.50;;;;;;4939217;29;20027;-84
2022/11/24 12:47:54;;;;;;;31.48;17.55;;;12.80;60.30;;;;;;4922276;29;20026;-82
2022/11/24 12:50:30;;;;;;;37.65;21.35;;;12.80;60.30;;;;;;4922424;29;20020;-82
2022/11/24 12:53:03;;;;;;;39.35;21.45;;;12.80;60.40;;;;;;4922253;29;20019;-82
2022/11/24 12:55:32;;;;;;;35.63;20.92;;;12.70;60.10;;;;;;4922245;29;20466;-82
2022/11/24 12:58:17;;;;;;;41.13;22.65;;;13.00;60.10;;;;;;4921950;29;20471;-81
2022/11/24 13:01:01;;;;;;;38.85;22.55;;;13.30;59.50;;;;;;4921791;29;20370;-83
2022/11/24 13:03:39;;;;;;;33.85;18.10;;;13.40;59.40;;;;;;4917363;29;20038;-84
2022/11/24 13:06:18;;;;;;;33.38;18.70;;;13.70;59.70;;;;;;4922145;29;20082;-80
2022/11/24 13:08:44;;;;;;;34.75;19.70;;;13.70;60.00;;;;;;4921745;29;20082;-82
2022/11/24 13:11:22;;;;;;;35.22;19.02;;;13.50;60.40;;;;;;4938559;29;20019;-82
2022/11/24 13:14:21;;;;;;;34.65;19.85;;;13.50;60.90;;;;;;4921706;29;20030;-88
2022/11/24 13:16:56;;;;;;;35.03;18.88;;;13.50;61.20;;;;;;4902999;29;20043;-81
2022/11/24 13:19:34;;;;;;;34.75;18.17;;;13.60;60.20;;;;;;4902703;29;20024;-81
2022/11/24 13:22:01;;;;;;;33.67;17.70;;;13.30;60.10;;;;;;4919393;29;20048;-81
2022/11/24 13:24:35;;;;;;;35.42;17.83;;;13.30;60.50;;;;;;4902451;29;20452;-82
2022/11/24 13:27:17;;;;;;;35.42;19.08;;;13.30;60.50;;;;;;4902186;29;20046;-81
2022/11/24 13:29:45;;;;;;;36.65;16.85;;;13.40;60.10;;;;;;4902729;29;20020;-81
2022/11/24 13:32:11;;;;;;;35.67;17.15;;;13.30;59.80;;;;;;4919394;29;20043;-81
2022/11/24 13:34:42;;;;;;;33.95;17.67;;;13.30;60.20;;;;;;4902523;29;20575;-83
2022/11/24 13:37:26;;;;;;;33.05;18.25;;;13.10;60.10;;;;;;4902344;29;20039;-82
2022/11/24 13:39:57;;;;;;;36.38;18.23;;;13.50;60.10;;;;;;4902064;29;20040;-81
2022/11/24 13:42:24;;;;;;;34.03;17.88;;;13.60;59.70;;;;;;4902165;29;20115;-81
2022/11/24 13:44:54;;;;;;;32.88;17.50;;;13.50;59.70;;;;;;4902049;29;20038;-82
2022/11/24 13:47:31;;;;;;;32.97;17.40;;;13.40;59.40;;;;;;4902325;29;20016;-81
2022/11/24 13:49:58;;;;;;;32.63;17.30;;;13.40;60.30;;;;;;4901688;29;20032;-83
2022/11/24 13:52:39;;;;;;;33.83;18.30;;;13.70;59.80;;;;;;4901679;29;20024;-81
2022/11/24 13:55:11;;;;;;;37.15;18.05;;;14.00;59.10;;;;;;4918922;29;20412;-80
2022/11/24 13:57:45;;;;;;;36.53;18.58;;;13.60;60.00;;;;;;4901906;29;20027;-82
2022/11/24 14:00:26;;;;;;;36.55;18.30;;;13.60;59.60;;;;;;4901630;29;20031;-82
2022/11/24 14:03:04;;;;;;;32.78;17.88;;;13.60;60.30;;;;;;4918268;29;20028;-81
2022/11/24 14:05:39;;;;;;;33.55;17.50;;;13.50;60.80;;;;;;4901747;29;20031;-82
2022/11/24 14:08:13;;;;;;;33.35;18.48;;;13.60;60.70;;;;;;4901689;29;20024;-82
2022/11/24 14:10:41;;;;;;;37.60;20.05;;;13.60;60.10;;;;;;4901660;29;20032;-83
2022/11/24 14:13:22;;;;;;;36.25;18.27;;;13.40;60.80;;;;;;4918635;29;20102;-83
2022/11/24 14:16:14;;;;;;;38.20;18.95;;;13.20;61.90;;;;;;4915689;29;20072;-83
2022/11/24 14:18:45;;;;;;;36.30;18.48;;;12.90;61.70;;;;;;4920397;29;20023;-86
2022/11/24 14:21:24;;;;;;;35.90;18.58;;;12.70;62.80;;;;;;4937437;29;20016;-83
2022/11/24 14:23:56;;;;;;;43.35;21.30;;;12.70;63.10;;;;;;4920278;29;20040;-83
2022/11/24 14:26:40;;;;;;;39.13;19.90;;;12.80;63.00;;;;;;4920381;29;20020;-83
2022/11/24 14:29:14;;;;;;;33.47;17.95;;;13.20;62.20;;;;;;4920044;29;20027;-82
2022/11/24 14:31:40;;;;;;;34.60;18.52;;;13.30;62.00;;;;;;4920274;29;20526;-82
2022/11/24 14:34:20;;;;;;;35.53;18.20;;;13.10;61.70;;;;;;4920043;29;20032;-82
2022/11/24 14:36:46;;;;;;;37.72;19.23;;;12.80;62.90;;;;;;4919962;29;20075;-87
2022/11/24 14:39:14;;;;;;;35.10;18.35;;;12.90;63.10;;;;;;4920135;29;20475;-83
2022/11/24 14:41:59;;;;;;;34.92;17.85;;;13.10;62.70;;;;;;4919977;29;20024;-83
2022/11/24 14:44:36;;;;;;;36.05;18.77;;;13.40;62.00;;;;;;4919955;29;20036;-82
2022/11/24 14:47:11;;;;;;;35.22;17.85;;;13.10;62.40;;;;;;4920204;29;20012;-82
2022/11/24 14:49:40;;;;;;;33.22;17.33;;;12.90;63.00;;;;;;4920166;29;20475;-81
2022/11/24 14:52:14;;;;;;;31.30;16.75;;;13.20;62.50;;;;;;4936960;29;20060;-83
2022/11/24 14:54:52;;;;;;;34.25;17.08;;;13.00;62.30;;;;;;4919695;29;20502;-83
2022/11/24 14:57:39;;;;;;;32.67;17.30;;;13.00;62.30;;;;;;4915993;29;20123;-83
2022/11/24 15:00:12;;;;;;;33.85;16.50;;;13.10;62.60;;;;;;4919889;29;20031;-83
2022/11/24 15:02:44;;;;;;;34.25;16.92;;;13.10;62.10;;;;;;4919752;29;20020;-82
2022/11/24 15:05:10;;;;;;;37.40;17.45;;;13.20;61.90;;;;;;4919599;29;20113;-82
2022/11/24 15:07:40;;;;;;;36.35;18.13;;;12.70;62.40;;;;;;4919997;29;20023;-82
2022/11/24 15:10:31;;;;;;;36.40;16.90;;;12.70;63.20;;;;;;4919644;29;20023;-83
2022/11/24 15:12:59;;;;;;;35.72;17.75;;;12.80;62.70;;;;;;4919461;29;20019;-83
2022/11/24 15:15:37;;;;;;;32.53;16.35;;;12.90;62.90;;;;;;4919009;29;20048;-83
2022/11/24 15:18:05;;;;;;;32.08;16.42;;;12.70;62.60;;;;;;4919321;29;20027;-83
2022/11/24 15:20:40;;;;;;;35.47;17.33;;;12.70;62.90;;;;;;4919554;29;20484;-83
2022/11/24 15:23:23;;;;;;;33.28;16.25;;;13.00;62.40;;;;;;4919302;29;20106;-82
2022/11/24 15:25:56;;;;;;;33.35;16.02;;;12.90;62.60;;;;;;4919277;29;20030;-82
2022/11/24 15:28:25;;;;;;;32.63;17.35;;;12.80;63.00;;;;;;4919286;29;20062;-82
2022/11/24 15:31:02;;;;;;;33.92;16.17;;;12.80;62.80;;;;;;4919175;29;20023;-82
2022/11/24 15:33:29;;;;;;;34.67;17.50;;;13.00;62.80;;;;;;4919092;29;20440;-84
2022/11/24 15:35:55;;;;;;;37.95;17.95;;;13.30;61.70;;;;;;4936170;29;20027;-83
2022/11/24 15:38:22;;;;;;;36.75;17.73;;;13.50;61.60;;;;;;4919047;29;20023;-83
2022/11/24 15:40:51;;;;;;;37.05;19.33;;;13.70;61.30;;;;;;4935937;29;20020;-82
2022/11/24 15:43:37;;;;;;;36.45;18.70;;;13.70;60.90;;;;;;4918975;29;20063;-83
2022/11/24 15:46:05;;;;;;;32.33;17.42;;;13.80;60.70;;;;;;4939240;29;20027;-83
2022/11/24 15:48:31;;;;;;;51.97;27.75;;;13.70;60.70;;;;;;4940160;29;20030;-82
2022/11/24 15:50:58;;;;;;;42.15;21.30;;;13.50;61.30;;;;;;4923119;29;20028;-82
2022/11/24 15:53:31;;;;;;;35.60;17.13;;;13.70;60.90;;;;;;4922744;29;20035;-83
2022/11/24 15:55:59;;;;;;;30.83;16.55;;;13.40;60.90;;;;;;4922864;29;20027;-82
2022/11/24 15:58:24;;;;;;;33.15;17.33;;;13.20;61.40;;;;;;4922834;29;20020;-81
2022/11/24 16:00:52;;;;;;;34.60;17.13;;;13.00;62.10;;;;;;4922738;29;20026;-82
2022/11/24 16:03:18;;;;;;;32.42;16.52;;;13.20;62.00;;;;;;4922638;29;20024;-82
2022/11/24 16:05:44;;;;;;;32.05;17.10;;;13.20;61.50;;;;;;4922674;29;20023;-83
2022/11/24 16:08:15;;;;;;;35.85;18.10;;;13.10;62.00;;;;;;4922474;29;20031;-83
2022/11/24 16:10:41;;;;;;;34.63;17.30;;;13.20;61.70;;;;;;4922651;29;20027;-83
2022/11/24 16:13:08;;;;;;;39.05;19.40;;;13.20;62.00;;;;;;4922920;29;20032;-82
2022/11/24 16:15:35;;;;;;;39.38;20.05;;;13.50;61.20;;;;;;4922321;29;20403;-82
2022/11/24 16:18:02;;;;;;;32.92;17.50;;;13.30;61.50;;;;;;4922674;29;20027;-92
2022/11/24 16:20:29;;;;;;;33.28;16.92;;;13.30;61.70;;;;;;4922307;29;20047;-81
2022/11/24 16:22:54;;;;;;;31.70;16.88;;;13.20;62.00;;;;;;4922395;29;20031;-83
2022/11/24 16:25:20;;;;;;;31.83;17.58;;;13.00;62.00;;;;;;4923263;29;20020;-82
2022/11/24 16:27:46;;;;;;;38.30;17.92;;;13.10;62.00;;;;;;4922251;29;20043;-83
2022/11/24 16:30:12;;;;;;;35.72;19.35;;;12.90;62.30;;;;;;4921918;29;20050;-83
2022/11/24 16:32:38;;;;;;;38.10;19.65;;;13.10;62.60;;;;;;4922327;29;20095;-82
2022/11/24 16:35:05;;;;;;;39.63;18.33;;;13.30;61.90;;;;;;4922003;29;20451;-82
2022/11/24 16:37:31;;;;;;;35.67;18.42;;;13.50;61.10;;;;;;4921871;29;20028;-84
2022/11/24 16:39:57;;;;;;;35.17;17.80;;;13.20;60.70;;;;;;4922092;29;20051;-82
2022/11/24 16:42:23;;;;;;;37.97;18.13;;;12.80;62.70;;;;;;4921974;29;20028;-87
2022/11/24 16:44:50;;;;;;;41.58;20.17;;;12.70;62.40;;;;;;4939370;29;20040;-83
2022/11/24 16:47:17;;;;;;;142.52;64.38;;;12.70;62.80;;;;;;4922362;29;20372;-82
2022/11/24 16:49:45;;;;;;;160.80;108.50;;;12.90;62.50;;;;;;4922154;29;20055;-81
2022/11/24 16:52:10;;;;;;;57.97;35.00;;;13.10;61.60;;;;;;4921744;29;20023;-85
2022/11/24 16:54:36;;;;;;;50.45;29.25;;;13.20;61.70;;;;;;4938770;29;20031;-83
2022/11/24 16:57:02;;;;;;;35.92;18.80;;;13.50;60.30;;;;;;4921943;29;20023;-82
2022/11/24 16:59:27;;;;;;;36.22;19.88;;;13.30;60.60;;;;;;4922005;29;20027;-82
2022/11/24 17:01:53;;;;;;;34.17;17.67;;;13.40;60.60;;;;;;4921812;29;20082;-82
2022/11/24 17:04:19;;;;;;;35.22;19.15;;;13.30;60.50;;;;;;4921820;29;20070;-83
2022/11/24 17:06:44;;;;;;;88.93;58.20;;;13.50;60.40;;;;;;4939164;29;20456;-82
2022/11/24 17:09:10;;;;;;;39.88;21.25;;;13.50;60.80;;;;;;4921590;29;20098;-81
2022/11/24 17:11:36;;;;;;;38.60;19.08;;;13.60;59.60;;;;;;4938758;29;20016;-82
2022/11/24 17:14:02;;;;;;;34.97;18.88;;;13.60;60.40;;;;;;4921475;29;20579;-81
2022/11/24 17:16:28;;;;;;;51.97;32.85;;;13.70;59.50;;;;;;4921796;29;20487;-80
2022/11/24 17:18:54;;;;;;;100.18;72.00;;;13.70;59.70;;;;;;4921664;29;20026;-89
2022/11/24 17:21:22;;;;;;;135.52;88.95;;;14.10;59.30;;;;;;4938768;29;20103;-82
2022/11/24 17:23:56;;;;;;;44.80;25.00;;;14.10;58.70;;;;;;4921062;29;20028;-82
2022/11/24 17:26:22;;;;;;;86.55;56.25;;;13.70;59.20;;;;;;4921446;29;20119;-88
2022/11/24 17:28:48;;;;;;;110.20;84.68;;;13.80;59.50;;;;;;4921418;29;20054;-82
2022/11/24 17:31:21;;;;;;;49.28;31.95;;;13.70;59.60;;;;;;4938700;29;20099;-84
2022/11/24 17:33:47;;;;;;;32.45;17.33;;;13.80;59.10;;;;;;4921754;29;20087;-82
2022/11/24 17:36:13;;;;;;;62.40;42.47;;;13.70;59.20;;;;;;4921386;29;20082;-82
2022/11/24 17:38:39;;;;;;;40.50;25.98;;;13.50;59.30;;;;;;4921700;29;20027;-84
2022/11/24 17:41:05;;;;;;;61.22;40.00;;;13.50;59.90;;;;;;4921652;29;20024;-88
2022/11/24 17:43:31;;;;;;;44.22;24.02;;;13.80;59.40;;;;;;4921389;29;20066;-82
2022/11/24 17:45:59;;;;;;;54.55;30.00;;;13.80;59.10;;;;;;4938319;29;20026;-83
2022/11/24 17:48:25;;;;;;;155.95;91.05;;;14.00;58.80;;;;;;4938305;29;20047;-83
2022/11/24 17:51:18;;;;;;;516.28;340.17;;;13.80;58.50;;;;;;4920815;29;20019;-83
2022/11/24 17:53:46;;;;;;;71.00;39.65;;;13.90;58.40;;;;;;4917191;29;20501;-81
2022/11/24 17:56:14;;;;;;;152.77;94.22;;;13.50;58.80;;;;;;4921306;29;20153;-82
2022/11/24 17:58:40;;;;;;;178.43;122.85;;;13.40;59.20;;;;;;4921162;29;20047;-83
2022/11/24 18:01:06;;;;;;;72.32;51.35;;;13.50;59.40;;;;;;4921055;29;20475;-83
2022/11/24 18:03:32;;;;;;;86.63;57.92;;;13.60;58.60;;;;;;4920895;29;20046;-83
2022/11/24 18:06:07;;;;;;;356.55;223.65;;;13.60;58.80;;;;;;4938237;29;20344;-83
2022/11/24 18:08:38;;;;;;;227.40;134.30;;;13.50;58.70;;;;;;4919864;29;20035;-82
2022/11/24 18:11:05;;;;;;;51.28;30.35;;;13.50;58.90;;;;;;4921063;29;20106;-82